createdAt,value
2023-04-04T00:06:36.245Z,1017.61
2023-04-04T00:16:36.490Z,1017.62
2023-04-04T00:26:36.657Z,1017.52
2023-04-04T00:36:36.895Z,1017.52
2023-04-04T00:46:37.118Z,1017.43
2023-04-04T00:56:37.320Z,1017.35
2023-04-04T01:06:37.534Z,1017.35
2023-04-04T01:16:37.843Z,1017.35
2023-04-04T01:26:37.892Z,1017.38
2023-04-04T01:36:38.078Z,1017.30
2023-04-04T01:46:38.299Z,1017.29
2023-04-04T01:56:38.513Z,1017.34
2023-04-04T02:06:38.713Z,1017.26
2023-04-04T02:16:38.920Z,1017.30
2023-04-04T02:26:39.128Z,1017.34
2023-04-04T02:36:39.333Z,1017.28
2023-04-04T02:46:39.543Z,1017.26
2023-04-04T02:56:39.715Z,1017.17
2023-04-04T03:06:40.059Z,1017.27
2023-04-04T03:16:40.121Z,1017.30
2023-04-04T03:26:40.138Z,1017.24
2023-04-04T03:36:40.337Z,1017.35
2023-04-04T03:46:40.543Z,1017.26
2023-04-04T03:56:40.762Z,1017.33
2023-04-04T04:06:40.947Z,1017.37
2023-04-04T04:16:41.141Z,1017.39
2023-04-04T04:26:41.351Z,1017.43
2023-04-04T04:36:41.574Z,1017.42
2023-04-04T04:46:41.802Z,1017.49
2023-04-04T04:56:41.994Z,1017.57
2023-04-04T05:06:42.188Z,1017.64
2023-04-04T05:16:42.423Z,1017.73
2023-04-04T05:26:42.587Z,1017.78
2023-04-04T05:36:42.813Z,1017.87
2023-04-04T05:46:43.050Z,1017.95
2023-04-04T05:56:43.062Z,1017.97
2023-04-04T06:06:43.290Z,1018.05
2023-04-04T06:16:43.487Z,1018.08
2023-04-04T06:26:43.696Z,1018.13
2023-04-04T06:36:43.957Z,1018.01
2023-04-04T06:46:44.168Z,1018.03
2023-04-04T06:56:44.361Z,1018.00
2023-04-04T07:06:44.558Z,1017.99
2023-04-04T07:16:44.872Z,1017.96
2023-04-04T07:26:44.833Z,1017.96
2023-04-04T07:36:45.025Z,1017.91
2023-04-04T07:46:47.904Z,1017.88
2023-04-04T07:56:46.521Z,1017.85
2023-04-04T08:06:45.714Z,1017.88
2023-04-04T08:16:45.911Z,1017.88
2023-04-04T08:26:49.288Z,1017.80
2023-04-04T08:36:47.361Z,1017.83
2023-04-04T08:46:46.584Z,1017.75
2023-04-04T08:56:46.770Z,1017.84
2023-04-04T09:06:46.989Z,1017.81
2023-04-04T09:16:47.234Z,1017.70
2023-04-04T09:26:47.402Z,1017.74
2023-04-04T09:36:47.597Z,1017.76
2023-04-04T09:46:47.793Z,1017.74
2023-04-04T09:56:47.996Z,1017.67
2023-04-04T10:06:48.200Z,1017.73
2023-04-04T10:16:48.415Z,1017.70
2023-04-04T10:26:48.609Z,1017.67
2023-04-04T10:36:48.817Z,1017.60
2023-04-04T10:46:49.023Z,1017.56
2023-04-04T10:56:49.229Z,1017.59
2023-04-04T11:06:49.464Z,1017.36
2023-04-04T11:16:49.510Z,1017.25
2023-04-04T11:26:49.666Z,1017.16
2023-04-04T11:36:49.906Z,1017.14
2023-04-04T11:46:51.147Z,1017.04
2023-04-04T11:56:50.363Z,1016.99
2023-04-04T12:06:50.734Z,1016.86
2023-04-04T12:16:50.751Z,1016.86
2023-04-04T12:26:50.956Z,1016.90
2023-04-04T12:36:51.154Z,1016.82
2023-04-04T12:46:51.422Z,1016.76
2023-04-04T12:56:51.559Z,1016.73
2023-04-04T13:06:51.836Z,1016.75
2023-04-04T13:16:52.070Z,1016.67
2023-04-04T13:26:52.262Z,1016.61
2023-04-04T13:36:52.506Z,1016.56
2023-04-04T13:46:52.773Z,1016.53
2023-04-04T13:56:54.628Z,1016.59
2023-04-04T14:06:52.953Z,1016.55
2023-04-04T14:16:52.950Z,1016.59
2023-04-04T14:26:53.195Z,1016.57
2023-04-04T14:36:53.424Z,1016.66
2023-04-04T14:46:53.710Z,1016.73
2023-04-04T14:56:53.705Z,1016.70
2023-04-04T15:06:53.899Z,1016.65
2023-04-04T15:16:54.198Z,1016.73
2023-04-04T15:26:56.379Z,1016.63
2023-04-04T15:36:54.308Z,1016.62
2023-04-04T15:46:54.472Z,1016.69
2023-04-04T15:56:54.693Z,1016.72
2023-04-04T16:06:54.917Z,1016.69
2023-04-04T16:16:55.128Z,1016.82
2023-04-04T16:26:55.334Z,1016.79
2023-04-04T16:36:55.581Z,1016.74
2023-04-04T16:46:55.811Z,1016.77
2023-04-04T16:56:56.013Z,1016.73
2023-04-04T17:06:56.219Z,1016.86
2023-04-04T17:16:56.474Z,1016.87
2023-04-04T17:26:56.629Z,1016.91
2023-04-04T17:36:56.896Z,1016.94
2023-04-04T17:46:57.321Z,1016.88
2023-04-04T17:56:57.312Z,1016.99
2023-04-04T18:06:57.689Z,1016.98
2023-04-04T18:16:58.009Z,1017.06
2023-04-04T18:26:57.904Z,1017.13
2023-04-04T18:36:58.112Z,1017.26
2023-04-04T18:46:58.404Z,1017.31
2023-04-04T18:56:58.579Z,1017.34
2023-04-04T19:06:58.752Z,1017.38
2023-04-04T19:16:59.699Z,1017.44
2023-04-04T19:26:59.001Z,1017.42
2023-04-04T19:37:00.134Z,1017.50
2023-04-04T19:46:59.377Z,1017.50
2023-04-04T19:57:00.181Z,1017.59
2023-04-04T20:06:59.658Z,1017.58
2023-04-04T20:16:59.872Z,1017.61
2023-04-04T20:27:00.128Z,1017.67
2023-04-04T20:37:00.312Z,1017.71
2023-04-04T20:47:00.518Z,1017.71
2023-04-04T20:57:00.748Z,1017.71
2023-04-04T21:07:00.947Z,1017.77
2023-04-04T21:17:01.152Z,1017.80
2023-04-04T21:27:01.350Z,1017.80
2023-04-04T21:37:01.548Z,1017.80
2023-04-04T21:47:01.766Z,1017.79
2023-04-04T21:57:01.970Z,1017.77
2023-04-04T22:07:02.197Z,1017.77
2023-04-04T22:17:02.375Z,1017.82
2023-04-04T22:27:02.583Z,1017.73
2023-04-04T22:37:02.796Z,1017.73
2023-04-04T22:47:02.997Z,1017.74
2023-04-04T22:57:03.288Z,1017.79
2023-04-04T23:07:03.304Z,1017.76
2023-04-04T23:17:03.500Z,1017.76
2023-04-04T23:27:03.712Z,1017.76
2023-04-04T23:37:03.908Z,1017.69
2023-04-04T23:47:04.097Z,1017.68
2023-04-04T23:57:04.316Z,1017.61
